sensor_id;sensor_type;location;lat;lon;timestamp;P1;durP1;ratioP1;P2;durP2;ratioP2
56239;SDS011;42154;51.992;5.896;2022-09-09T00:04:32;5.45;;;2.00;;
56239;SDS011;42154;51.992;5.896;2022-09-09T00:12:02;4.18;;;2.25;;
56239;SDS011;42154;51.992;5.896;2022-09-09T00:20:14;3.03;;;2.03;;
56239;SDS011;42154;51.992;5.896;2022-09-09T00:22:48;6.25;;;2.63;;
56239;SDS011;42154;51.992;5.896;2022-09-09T00:28:25;4.32;;;2.70;;
56239;SDS011;42154;51.992;5.896;2022-09-09T00:30:52;3.20;;;2.90;;
56239;SDS011;42154;51.992;5.896;2022-09-09T00:33:20;5.35;;;2.85;;
56239;SDS011;42154;51.992;5.896;2022-09-09T00:35:53;3.90;;;2.60;;
56239;SDS011;42154;51.992;5.896;2022-09-09T00:38:35;2.90;;;2.30;;
56239;SDS011;42154;51.992;5.896;2022-09-09T00:43:55;2.22;;;2.00;;
56239;SDS011;42154;51.992;5.896;2022-09-09T00:46:40;3.95;;;2.63;;
56239;SDS011;42154;51.992;5.896;2022-09-09T00:49:21;3.17;;;2.50;;
56239;SDS011;42154;51.992;5.896;2022-09-09T00:52:19;4.30;;;2.83;;
56239;SDS011;42154;51.992;5.896;2022-09-09T01:00:17;3.55;;;3.25;;
56239;SDS011;42154;51.992;5.896;2022-09-09T01:05:20;4.32;;;2.95;;
56239;SDS011;42154;51.992;5.896;2022-09-09T01:07:57;3.33;;;2.83;;
56239;SDS011;42154;51.992;5.896;2022-09-09T01:13:13;4.75;;;2.53;;
56239;SDS011;42154;51.992;5.896;2022-09-09T01:15:47;5.55;;;2.38;;
56239;SDS011;42154;51.992;5.896;2022-09-09T01:18:15;3.70;;;2.50;;
56239;SDS011;42154;51.992;5.896;2022-09-09T01:23:28;3.67;;;2.10;;
56239;SDS011;42154;51.992;5.896;2022-09-09T01:28:58;4.63;;;2.20;;
56239;SDS011;42154;51.992;5.896;2022-09-09T01:34:11;4.07;;;1.73;;
56239;SDS011;42154;51.992;5.896;2022-09-09T01:36:42;4.38;;;1.85;;
56239;SDS011;42154;51.992;5.896;2022-09-09T01:39:15;2.60;;;1.85;;
56239;SDS011;42154;51.992;5.896;2022-09-09T01:41:42;2.83;;;2.05;;
56239;SDS011;42154;51.992;5.896;2022-09-09T01:44:11;1.98;;;1.55;;
56239;SDS011;42154;51.992;5.896;2022-09-09T01:46:40;3.13;;;1.75;;
56239;SDS011;42154;51.992;5.896;2022-09-09T01:49:12;2.88;;;1.55;;
56239;SDS011;42154;51.992;5.896;2022-09-09T01:51:38;3.03;;;2.20;;
56239;SDS011;42154;51.992;5.896;2022-09-09T01:54:08;2.58;;;1.50;;
56239;SDS011;42154;51.992;5.896;2022-09-09T01:56:40;2.63;;;1.75;;
56239;SDS011;42154;51.992;5.896;2022-09-09T02:02:11;3.88;;;1.90;;
56239;SDS011;42154;51.992;5.896;2022-09-09T02:05:14;2.38;;;1.77;;
56239;SDS011;42154;51.992;5.896;2022-09-09T02:07:52;3.22;;;2.00;;
56239;SDS011;42154;51.992;5.896;2022-09-09T02:10:47;2.55;;;2.15;;
56239;SDS011;42154;51.992;5.896;2022-09-09T02:14:07;2.35;;;2.03;;
56239;SDS011;42154;51.992;5.896;2022-09-09T02:16:44;2.78;;;2.10;;
56239;SDS011;42154;51.992;5.896;2022-09-09T02:19:21;2.75;;;2.17;;
56239;SDS011;42154;51.992;5.896;2022-09-09T02:22:01;2.50;;;2.10;;
56239;SDS011;42154;51.992;5.896;2022-09-09T02:24:29;3.50;;;2.50;;
56239;SDS011;42154;51.992;5.896;2022-09-09T02:27:09;3.58;;;2.13;;
56239;SDS011;42154;51.992;5.896;2022-09-09T02:29:41;2.42;;;2.17;;
56239;SDS011;42154;51.992;5.896;2022-09-09T02:32:11;3.42;;;2.50;;
56239;SDS011;42154;51.992;5.896;2022-09-09T02:34:45;3.85;;;2.53;;
56239;SDS011;42154;51.992;5.896;2022-09-09T02:37:15;3.53;;;2.35;;
56239;SDS011;42154;51.992;5.896;2022-09-09T02:39:47;3.38;;;2.47;;
56239;SDS011;42154;51.992;5.896;2022-09-09T02:42:17;2.30;;;2.10;;
56239;SDS011;42154;51.992;5.896;2022-09-09T02:44:43;3.95;;;2.80;;
56239;SDS011;42154;51.992;5.896;2022-09-09T02:47:16;2.53;;;1.83;;
56239;SDS011;42154;51.992;5.896;2022-09-09T02:49:55;3.95;;;2.13;;
56239;SDS011;42154;51.992;5.896;2022-09-09T02:52:33;3.92;;;2.15;;
56239;SDS011;42154;51.992;5.896;2022-09-09T02:55:11;2.65;;;1.95;;
56239;SDS011;42154;51.992;5.896;2022-09-09T02:57:45;2.83;;;2.10;;
56239;SDS011;42154;51.992;5.896;2022-09-09T03:00:15;4.10;;;2.35;;
56239;SDS011;42154;51.992;5.896;2022-09-09T03:02:41;2.67;;;2.22;;
56239;SDS011;42154;51.992;5.896;2022-09-09T03:05:07;2.90;;;2.42;;
56239;SDS011;42154;51.992;5.896;2022-09-09T03:07:33;3.03;;;2.30;;
56239;SDS011;42154;51.992;5.896;2022-09-09T03:10:00;2.80;;;1.92;;
56239;SDS011;42154;51.992;5.896;2022-09-09T03:12:26;2.90;;;2.20;;
56239;SDS011;42154;51.992;5.896;2022-09-09T03:14:52;3.28;;;2.33;;
56239;SDS011;42154;51.992;5.896;2022-09-09T03:17:18;4.32;;;2.08;;
56239;SDS011;42154;51.992;5.896;2022-09-09T03:19:50;4.05;;;2.72;;
56239;SDS011;42154;51.992;5.896;2022-09-09T03:22:17;3.30;;;2.40;;
56239;SDS011;42154;51.992;5.896;2022-09-09T03:24:44;4.03;;;2.20;;
56239;SDS011;42154;51.992;5.896;2022-09-09T03:27:12;3.42;;;2.15;;
56239;SDS011;42154;51.992;5.896;2022-09-09T03:29:39;3.83;;;2.25;;
56239;SDS011;42154;51.992;5.896;2022-09-09T03:32:09;2.83;;;2.30;;
56239;SDS011;42154;51.992;5.896;2022-09-09T03:34:38;2.92;;;2.30;;
56239;SDS011;42154;51.992;5.896;2022-09-09T03:37:08;4.03;;;2.58;;
56239;SDS011;42154;51.992;5.896;2022-09-09T03:39:35;3.78;;;2.50;;
56239;SDS011;42154;51.992;5.896;2022-09-09T03:42:01;4.70;;;2.15;;
56239;SDS011;42154;51.992;5.896;2022-09-09T03:44:30;2.80;;;2.10;;
56239;SDS011;42154;51.992;5.896;2022-09-09T03:46:56;2.88;;;2.33;;
56239;SDS011;42154;51.992;5.896;2022-09-09T03:49:22;5.25;;;2.45;;
56239;SDS011;42154;51.992;5.896;2022-09-09T03:51:49;9.48;;;2.10;;
56239;SDS011;42154;51.992;5.896;2022-09-09T03:54:15;2.45;;;1.77;;
56239;SDS011;42154;51.992;5.896;2022-09-09T03:56:40;2.88;;;2.17;;
56239;SDS011;42154;51.992;5.896;2022-09-09T03:59:07;3.17;;;2.33;;
56239;SDS011;42154;51.992;5.896;2022-09-09T04:01:34;3.28;;;2.30;;
56239;SDS011;42154;51.992;5.896;2022-09-09T04:04:00;4.68;;;2.33;;
56239;SDS011;42154;51.992;5.896;2022-09-09T04:06:27;2.85;;;2.28;;
56239;SDS011;42154;51.992;5.896;2022-09-09T04:08:55;3.75;;;2.50;;
56239;SDS011;42154;51.992;5.896;2022-09-09T04:11:21;3.25;;;2.85;;
56239;SDS011;42154;51.992;5.896;2022-09-09T04:13:50;4.47;;;2.67;;
56239;SDS011;42154;51.992;5.896;2022-09-09T04:16:17;3.70;;;2.03;;
56239;SDS011;42154;51.992;5.896;2022-09-09T04:18:43;4.32;;;2.40;;
56239;SDS011;42154;51.992;5.896;2022-09-09T04:21:09;3.25;;;2.13;;
56239;SDS011;42154;51.992;5.896;2022-09-09T04:23:36;4.93;;;2.40;;
56239;SDS011;42154;51.992;5.896;2022-09-09T04:26:02;4.63;;;2.47;;
56239;SDS011;42154;51.992;5.896;2022-09-09T04:28:32;4.75;;;2.20;;
56239;SDS011;42154;51.992;5.896;2022-09-09T04:31:06;4.05;;;2.50;;
56239;SDS011;42154;51.992;5.896;2022-09-09T04:33:35;4.15;;;2.10;;
56239;SDS011;42154;51.992;5.896;2022-09-09T04:36:02;5.03;;;2.53;;
56239;SDS011;42154;51.992;5.896;2022-09-09T04:38:29;3.20;;;2.60;;
56239;SDS011;42154;51.992;5.896;2022-09-09T04:40:55;3.25;;;2.13;;
56239;SDS011;42154;51.992;5.896;2022-09-09T04:43:22;3.22;;;2.28;;
56239;SDS011;42154;51.992;5.896;2022-09-09T04:45:49;3.83;;;2.30;;
56239;SDS011;42154;51.992;5.896;2022-09-09T04:48:16;3.08;;;2.40;;
56239;SDS011;42154;51.992;5.896;2022-09-09T04:50:42;6.07;;;2.25;;
56239;SDS011;42154;51.992;5.896;2022-09-09T04:53:11;4.65;;;2.70;;
56239;SDS011;42154;51.992;5.896;2022-09-09T04:55:37;3.80;;;2.58;;
56239;SDS011;42154;51.992;5.896;2022-09-09T04:58:07;6.00;;;2.20;;
56239;SDS011;42154;51.992;5.896;2022-09-09T05:00:34;5.50;;;2.90;;
56239;SDS011;42154;51.992;5.896;2022-09-09T05:03:04;4.18;;;2.60;;
56239;SDS011;42154;51.992;5.896;2022-09-09T05:05:31;3.80;;;2.80;;
56239;SDS011;42154;51.992;5.896;2022-09-09T05:08:06;3.83;;;3.20;;
56239;SDS011;42154;51.992;5.896;2022-09-09T05:10:34;4.97;;;2.85;;
56239;SDS011;42154;51.992;5.896;2022-09-09T05:13:05;7.22;;;3.40;;
56239;SDS011;42154;51.992;5.896;2022-09-09T05:15:32;4.05;;;2.30;;
56239;SDS011;42154;51.992;5.896;2022-09-09T05:17:58;4.82;;;2.92;;
56239;SDS011;42154;51.992;5.896;2022-09-09T05:20:27;3.35;;;2.40;;
56239;SDS011;42154;51.992;5.896;2022-09-09T05:22:53;2.88;;;1.70;;
56239;SDS011;42154;51.992;5.896;2022-09-09T05:25:20;6.53;;;2.17;;
56239;SDS011;42154;51.992;5.896;2022-09-09T05:27:47;4.40;;;2.10;;
56239;SDS011;42154;51.992;5.896;2022-09-09T05:30:14;4.13;;;1.50;;
56239;SDS011;42154;51.992;5.896;2022-09-09T05:32:41;6.25;;;2.65;;
56239;SDS011;42154;51.992;5.896;2022-09-09T05:35:07;5.20;;;2.47;;
56239;SDS011;42154;51.992;5.896;2022-09-09T05:37:33;6.30;;;3.40;;
56239;SDS011;42154;51.992;5.896;2022-09-09T05:40:00;5.60;;;2.70;;
56239;SDS011;42154;51.992;5.896;2022-09-09T05:42:29;6.60;;;2.33;;
56239;SDS011;42154;51.992;5.896;2022-09-09T05:44:56;4.03;;;2.10;;
56239;SDS011;42154;51.992;5.896;2022-09-09T05:47:22;7.35;;;2.70;;
56239;SDS011;42154;51.992;5.896;2022-09-09T05:49:48;3.85;;;2.42;;
56239;SDS011;42154;51.992;5.896;2022-09-09T05:52:14;4.35;;;1.98;;
56239;SDS011;42154;51.992;5.896;2022-09-09T05:54:40;3.33;;;2.40;;
56239;SDS011;42154;51.992;5.896;2022-09-09T05:57:08;2.83;;;1.90;;
56239;SDS011;42154;51.992;5.896;2022-09-09T05:59:33;4.70;;;2.63;;
56239;SDS011;42154;51.992;5.896;2022-09-09T06:01:59;7.00;;;2.40;;
56239;SDS011;42154;51.992;5.896;2022-09-09T06:04:31;4.22;;;1.67;;
56239;SDS011;42154;51.992;5.896;2022-09-09T06:06:59;5.40;;;2.03;;
56239;SDS011;42154;51.992;5.896;2022-09-09T06:09:25;4.47;;;2.03;;
56239;SDS011;42154;51.992;5.896;2022-09-09T06:11:50;7.78;;;2.67;;
56239;SDS011;42154;51.992;5.896;2022-09-09T06:14:18;3.45;;;2.60;;
56239;SDS011;42154;51.992;5.896;2022-09-09T06:16:45;6.72;;;2.90;;
56239;SDS011;42154;51.992;5.896;2022-09-09T06:19:21;8.23;;;2.65;;
56239;SDS011;42154;51.992;5.896;2022-09-09T06:21:47;3.90;;;2.15;;
56239;SDS011;42154;51.992;5.896;2022-09-09T06:24:14;6.10;;;2.60;;
56239;SDS011;42154;51.992;5.896;2022-09-09T06:26:43;5.75;;;2.70;;
56239;SDS011;42154;51.992;5.896;2022-09-09T06:29:12;5.45;;;2.33;;
56239;SDS011;42154;51.992;5.896;2022-09-09T06:31:39;4.40;;;1.75;;
56239;SDS011;42154;51.992;5.896;2022-09-09T06:34:15;6.45;;;2.53;;
56239;SDS011;42154;51.992;5.896;2022-09-09T06:36:45;4.85;;;1.83;;
56239;SDS011;42154;51.992;5.896;2022-09-09T06:39:11;5.22;;;2.70;;
56239;SDS011;42154;51.992;5.896;2022-09-09T06:41:38;6.55;;;3.30;;
56239;SDS011;42154;51.992;5.896;2022-09-09T06:44:08;7.50;;;2.20;;
56239;SDS011;42154;51.992;5.896;2022-09-09T06:46:40;5.25;;;2.53;;
56239;SDS011;42154;51.992;5.896;2022-09-09T06:49:08;9.88;;;3.00;;
56239;SDS011;42154;51.992;5.896;2022-09-09T06:51:35;8.98;;;3.17;;
56239;SDS011;42154;51.992;5.896;2022-09-09T06:54:03;7.15;;;2.20;;
56239;SDS011;42154;51.992;5.896;2022-09-09T06:56:34;6.85;;;2.33;;
56239;SDS011;42154;51.992;5.896;2022-09-09T06:59:06;11.55;;;2.92;;
56239;SDS011;42154;51.992;5.896;2022-09-09T07:01:35;8.13;;;3.22;;
56239;SDS011;42154;51.992;5.896;2022-09-09T07:04:05;6.20;;;2.58;;
56239;SDS011;42154;51.992;5.896;2022-09-09T07:06:35;10.65;;;2.47;;
56239;SDS011;42154;51.992;5.896;2022-09-09T07:09:15;5.57;;;2.10;;
56239;SDS011;42154;51.992;5.896;2022-09-09T07:11:48;6.70;;;2.42;;
56239;SDS011;42154;51.992;5.896;2022-09-09T07:14:18;7.53;;;2.22;;
56239;SDS011;42154;51.992;5.896;2022-09-09T07:16:48;9.52;;;2.78;;
56239;SDS011;42154;51.992;5.896;2022-09-09T07:19:16;10.85;;;2.72;;
56239;SDS011;42154;51.992;5.896;2022-09-09T07:21:43;9.07;;;2.72;;
56239;SDS011;42154;51.992;5.896;2022-09-09T07:24:12;6.07;;;2.38;;
56239;SDS011;42154;51.992;5.896;2022-09-09T07:26:40;9.32;;;2.85;;
56239;SDS011;42154;51.992;5.896;2022-09-09T07:29:06;6.85;;;2.60;;
56239;SDS011;42154;51.992;5.896;2022-09-09T07:31:34;6.97;;;2.25;;
56239;SDS011;42154;51.992;5.896;2022-09-09T07:34:04;4.28;;;1.85;;
56239;SDS011;42154;51.992;5.896;2022-09-09T07:36:35;8.13;;;2.20;;
56239;SDS011;42154;51.992;5.896;2022-09-09T07:39:05;6.65;;;2.50;;
56239;SDS011;42154;51.992;5.896;2022-09-09T07:41:34;7.95;;;2.63;;
56239;SDS011;42154;51.992;5.896;2022-09-09T07:44:09;4.57;;;2.10;;
56239;SDS011;42154;51.992;5.896;2022-09-09T07:46:42;5.85;;;1.80;;
56239;SDS011;42154;51.992;5.896;2022-09-09T07:49:13;3.83;;;2.00;;
56239;SDS011;42154;51.992;5.896;2022-09-09T07:51:41;4.43;;;2.05;;
56239;SDS011;42154;51.992;5.896;2022-09-09T07:54:11;8.20;;;2.22;;
56239;SDS011;42154;51.992;5.896;2022-09-09T07:56:41;7.22;;;2.15;;
56239;SDS011;42154;51.992;5.896;2022-09-09T07:59:08;5.05;;;2.17;;
56239;SDS011;42154;51.992;5.896;2022-09-09T08:01:40;10.70;;;3.45;;
56239;SDS011;42154;51.992;5.896;2022-09-09T08:04:16;8.52;;;2.60;;
56239;SDS011;42154;51.992;5.896;2022-09-09T08:06:45;8.52;;;2.30;;
56239;SDS011;42154;51.992;5.896;2022-09-09T08:09:19;8.05;;;2.63;;
56239;SDS011;42154;51.992;5.896;2022-09-09T08:11:47;9.05;;;2.80;;
56239;SDS011;42154;51.992;5.896;2022-09-09T08:14:13;9.60;;;2.30;;
56239;SDS011;42154;51.992;5.896;2022-09-09T08:16:41;6.65;;;2.22;;
56239;SDS011;42154;51.992;5.896;2022-09-09T08:19:15;8.27;;;2.63;;
56239;SDS011;42154;51.992;5.896;2022-09-09T08:21:41;7.35;;;1.95;;
56239;SDS011;42154;51.992;5.896;2022-09-09T08:24:09;9.30;;;2.65;;
56239;SDS011;42154;51.992;5.896;2022-09-09T08:26:37;8.85;;;2.42;;
56239;SDS011;42154;51.992;5.896;2022-09-09T08:29:10;5.85;;;1.75;;
56239;SDS011;42154;51.992;5.896;2022-09-09T08:31:38;6.97;;;1.80;;
56239;SDS011;42154;51.992;5.896;2022-09-09T08:34:12;7.97;;;1.98;;
56239;SDS011;42154;51.992;5.896;2022-09-09T08:36:42;7.00;;;1.95;;
56239;SDS011;42154;51.992;5.896;2022-09-09T08:39:12;5.45;;;1.88;;
56239;SDS011;42154;51.992;5.896;2022-09-09T08:49:55;9.02;;;2.50;;
56239;SDS011;42154;51.992;5.896;2022-09-09T09:03:40;9.13;;;2.30;;
56239;SDS011;42154;51.992;5.896;2022-09-09T09:09:04;7.40;;;1.55;;
56239;SDS011;42154;51.992;5.896;2022-09-09T09:11:39;8.07;;;1.40;;
56239;SDS011;42154;51.992;5.896;2022-09-09T09:14:17;8.95;;;1.55;;
56239;SDS011;42154;51.992;5.896;2022-09-09T09:19:26;4.18;;;1.20;;
56239;SDS011;42154;51.992;5.896;2022-09-09T09:27:27;3.78;;;1.20;;
56239;SDS011;42154;51.992;5.896;2022-09-09T09:30:20;7.72;;;1.50;;
56239;SDS011;42154;51.992;5.896;2022-09-09T09:32:51;5.50;;;1.20;;
56239;SDS011;42154;51.992;5.896;2022-09-09T09:35:25;4.60;;;1.45;;
56239;SDS011;42154;51.992;5.896;2022-09-09T09:37:50;4.55;;;1.60;;
56239;SDS011;42154;51.992;5.896;2022-09-09T09:40:18;5.50;;;1.30;;
56239;SDS011;42154;51.992;5.896;2022-09-09T09:42:55;4.32;;;1.20;;
56239;SDS011;42154;51.992;5.896;2022-09-09T09:47:57;9.57;;;1.70;;
56239;SDS011;42154;51.992;5.896;2022-09-09T09:50:24;5.50;;;1.67;;
56239;SDS011;42154;51.992;5.896;2022-09-09T09:55:50;4.60;;;1.05;;
56239;SDS011;42154;51.992;5.896;2022-09-09T09:58:30;3.88;;;1.42;;
56239;SDS011;42154;51.992;5.896;2022-09-09T10:01:00;5.47;;;1.70;;
56239;SDS011;42154;51.992;5.896;2022-09-09T10:06:03;3.17;;;1.35;;
56239;SDS011;42154;51.992;5.896;2022-09-09T10:08:29;7.45;;;1.65;;
56239;SDS011;42154;51.992;5.896;2022-09-09T10:13:39;5.45;;;1.20;;
56239;SDS011;42154;51.992;5.896;2022-09-09T10:16:37;4.90;;;1.30;;
56239;SDS011;42154;51.992;5.896;2022-09-09T10:19:16;4.65;;;1.17;;
56239;SDS011;42154;51.992;5.896;2022-09-09T10:30:03;3.78;;;1.30;;
56239;SDS011;42154;51.992;5.896;2022-09-09T10:43:43;7.82;;;1.58;;
56239;SDS011;42154;51.992;5.896;2022-09-09T10:51:49;5.15;;;1.35;;
56239;SDS011;42154;51.992;5.896;2022-09-09T10:57:11;4.82;;;1.45;;
56239;SDS011;42154;51.992;5.896;2022-09-09T10:59:48;6.50;;;1.48;;
56239;SDS011;42154;51.992;5.896;2022-09-09T11:04:58;5.13;;;1.50;;
56239;SDS011;42154;51.992;5.896;2022-09-09T11:07:44;4.50;;;1.30;;
56239;SDS011;42154;51.992;5.896;2022-09-09T11:13:09;6.45;;;1.98;;
56239;SDS011;42154;51.992;5.896;2022-09-09T11:15:44;6.28;;;1.45;;
56239;SDS011;42154;51.992;5.896;2022-09-09T11:18:16;5.95;;;1.50;;
56239;SDS011;42154;51.992;5.896;2022-09-09T11:20:58;8.05;;;1.75;;
56239;SDS011;42154;51.992;5.896;2022-09-09T11:23:28;6.07;;;1.33;;
56239;SDS011;42154;51.992;5.896;2022-09-09T11:26:25;9.02;;;2.13;;
56239;SDS011;42154;51.992;5.896;2022-09-09T11:32:06;4.20;;;1.27;;
56239;SDS011;42154;51.992;5.896;2022-09-09T11:43:05;5.45;;;1.27;;
56239;SDS011;42154;51.992;5.896;2022-09-09T11:45:37;5.25;;;1.80;;
56239;SDS011;42154;51.992;5.896;2022-09-09T11:48:21;4.85;;;1.42;;
56239;SDS011;42154;51.992;5.896;2022-09-09T11:53:32;4.03;;;1.10;;
56239;SDS011;42154;51.992;5.896;2022-09-09T11:56:22;5.30;;;1.42;;
56239;SDS011;42154;51.992;5.896;2022-09-09T12:01:35;2.85;;;1.17;;
56239;SDS011;42154;51.992;5.896;2022-09-09T12:06:45;3.78;;;1.30;;
56239;SDS011;42154;51.992;5.896;2022-09-09T12:09:23;3.63;;;1.30;;
56239;SDS011;42154;51.992;5.896;2022-09-09T12:14:44;6.13;;;1.48;;
56239;SDS011;42154;51.992;5.896;2022-09-09T12:17:43;5.10;;;1.23;;
56239;SDS011;42154;51.992;5.896;2022-09-09T12:22:46;5.43;;;1.50;;
56239;SDS011;42154;51.992;5.896;2022-09-09T12:28:00;3.92;;;1.20;;
56239;SDS011;42154;51.992;5.896;2022-09-09T12:30:34;4.97;;;1.38;;
56239;SDS011;42154;51.992;5.896;2022-09-09T12:33:19;4.95;;;1.17;;
56239;SDS011;42154;51.992;5.896;2022-09-09T12:35:51;5.32;;;1.27;;
56239;SDS011;42154;51.992;5.896;2022-09-09T12:38:37;4.78;;;1.20;;
56239;SDS011;42154;51.992;5.896;2022-09-09T12:41:24;4.85;;;1.30;;
56239;SDS011;42154;51.992;5.896;2022-09-09T12:43:51;5.00;;;1.55;;
56239;SDS011;42154;51.992;5.896;2022-09-09T12:46:41;7.10;;;1.88;;
56239;SDS011;42154;51.992;5.896;2022-09-09T12:52:00;4.03;;;1.00;;
56239;SDS011;42154;51.992;5.896;2022-09-09T12:56:55;4.25;;;1.42;;
56239;SDS011;42154;51.992;5.896;2022-09-09T12:59:26;5.30;;;1.60;;
56239;SDS011;42154;51.992;5.896;2022-09-09T13:02:00;2.78;;;0.90;;
56239;SDS011;42154;51.992;5.896;2022-09-09T13:04:26;3.60;;;1.00;;
56239;SDS011;42154;51.992;5.896;2022-09-09T13:06:52;5.00;;;1.42;;
56239;SDS011;42154;51.992;5.896;2022-09-09T13:09:18;3.53;;;0.90;;
56239;SDS011;42154;51.992;5.896;2022-09-09T13:11:49;2.95;;;0.90;;
56239;SDS011;42154;51.992;5.896;2022-09-09T13:14:39;4.28;;;1.05;;
56239;SDS011;42154;51.992;5.896;2022-09-09T13:17:15;2.17;;;0.90;;
56239;SDS011;42154;51.992;5.896;2022-09-09T13:19:45;2.45;;;1.05;;
56239;SDS011;42154;51.992;5.896;2022-09-09T13:22:12;4.55;;;1.05;;
56239;SDS011;42154;51.992;5.896;2022-09-09T13:24:39;2.83;;;0.93;;
56239;SDS011;42154;51.992;5.896;2022-09-09T13:27:19;4.53;;;1.58;;
56239;SDS011;42154;51.992;5.896;2022-09-09T13:29:56;3.25;;;1.08;;
56239;SDS011;42154;51.992;5.896;2022-09-09T13:32:23;3.90;;;1.20;;
56239;SDS011;42154;51.992;5.896;2022-09-09T13:34:53;4.40;;;1.38;;
56239;SDS011;42154;51.992;5.896;2022-09-09T13:37:32;3.88;;;1.52;;
56239;SDS011;42154;51.992;5.896;2022-09-09T13:40:02;2.57;;;1.10;;
56239;SDS011;42154;51.992;5.896;2022-09-09T13:42:31;4.72;;;1.60;;
56239;SDS011;42154;51.992;5.896;2022-09-09T13:45:02;7.38;;;2.35;;
56239;SDS011;42154;51.992;5.896;2022-09-09T13:47:33;4.60;;;1.80;;
56239;SDS011;42154;51.992;5.896;2022-09-09T13:50:21;2.67;;;1.33;;
56239;SDS011;42154;51.992;5.896;2022-09-09T13:52:48;3.42;;;1.50;;
56239;SDS011;42154;51.992;5.896;2022-09-09T13:55:16;4.40;;;1.27;;
56239;SDS011;42154;51.992;5.896;2022-09-09T13:57:53;2.40;;;1.13;;
56239;SDS011;42154;51.992;5.896;2022-09-09T14:00:20;4.75;;;1.77;;
56239;SDS011;42154;51.992;5.896;2022-09-09T14:02:47;4.15;;;1.20;;
56239;SDS011;42154;51.992;5.896;2022-09-09T14:05:13;5.47;;;1.70;;
56239;SDS011;42154;51.992;5.896;2022-09-09T14:07:41;2.75;;;1.27;;
56239;SDS011;42154;51.992;5.896;2022-09-09T14:10:08;4.63;;;1.27;;
56239;SDS011;42154;51.992;5.896;2022-09-09T14:12:34;2.92;;;1.02;;
56239;SDS011;42154;51.992;5.896;2022-09-09T14:15:01;2.40;;;1.10;;
56239;SDS011;42154;51.992;5.896;2022-09-09T14:17:28;3.00;;;1.13;;
56239;SDS011;42154;51.992;5.896;2022-09-09T14:19:55;2.78;;;1.08;;
56239;SDS011;42154;51.992;5.896;2022-09-09T14:22:21;2.95;;;0.80;;
56239;SDS011;42154;51.992;5.896;2022-09-09T14:24:47;2.03;;;0.60;;
56239;SDS011;42154;51.992;5.896;2022-09-09T14:27:14;4.93;;;1.33;;
56239;SDS011;42154;51.992;5.896;2022-09-09T14:29:40;3.83;;;1.02;;
56239;SDS011;42154;51.992;5.896;2022-09-09T14:32:07;3.03;;;0.70;;
56239;SDS011;42154;51.992;5.896;2022-09-09T14:34:32;4.43;;;1.00;;
56239;SDS011;42154;51.992;5.896;2022-09-09T14:36:58;3.83;;;1.00;;
56239;SDS011;42154;51.992;5.896;2022-09-09T14:39:24;3.70;;;1.17;;
56239;SDS011;42154;51.992;5.896;2022-09-09T14:41:50;2.42;;;0.80;;
56239;SDS011;42154;51.992;5.896;2022-09-09T14:44:15;3.40;;;0.80;;
56239;SDS011;42154;51.992;5.896;2022-09-09T14:46:41;1.90;;;1.00;;
56239;SDS011;42154;51.992;5.896;2022-09-09T14:49:10;4.75;;;0.85;;
56239;SDS011;42154;51.992;5.896;2022-09-09T14:51:38;2.08;;;0.75;;
56239;SDS011;42154;51.992;5.896;2022-09-09T14:54:03;2.65;;;0.90;;
56239;SDS011;42154;51.992;5.896;2022-09-09T14:56:31;3.60;;;0.95;;
56239;SDS011;42154;51.992;5.896;2022-09-09T14:58:59;2.75;;;0.93;;
56239;SDS011;42154;51.992;5.896;2022-09-09T15:01:26;4.70;;;1.13;;
56239;SDS011;42154;51.992;5.896;2022-09-09T15:03:54;3.30;;;1.00;;
56239;SDS011;42154;51.992;5.896;2022-09-09T15:06:22;3.58;;;0.90;;
56239;SDS011;42154;51.992;5.896;2022-09-09T15:08:50;3.95;;;1.20;;
56239;SDS011;42154;51.992;5.896;2022-09-09T15:11:17;4.60;;;1.00;;
56239;SDS011;42154;51.992;5.896;2022-09-09T15:13:43;3.10;;;0.90;;
56239;SDS011;42154;51.992;5.896;2022-09-09T15:16:13;2.42;;;0.93;;
56239;SDS011;42154;51.992;5.896;2022-09-09T15:18:40;2.83;;;0.88;;
56239;SDS011;42154;51.992;5.896;2022-09-09T15:21:26;6.30;;;1.20;;
56239;SDS011;42154;51.992;5.896;2022-09-09T15:23:54;4.30;;;1.35;;
56239;SDS011;42154;51.992;5.896;2022-09-09T15:26:21;6.35;;;1.42;;
56239;SDS011;42154;51.992;5.896;2022-09-09T15:28:47;6.38;;;1.33;;
56239;SDS011;42154;51.992;5.896;2022-09-09T15:31:24;2.38;;;0.93;;
56239;SDS011;42154;51.992;5.896;2022-09-09T15:33:55;4.05;;;1.27;;
56239;SDS011;42154;51.992;5.896;2022-09-09T15:36:29;4.45;;;1.27;;
56239;SDS011;42154;51.992;5.896;2022-09-09T15:38:57;4.22;;;1.50;;
56239;SDS011;42154;51.992;5.896;2022-09-09T15:41:24;3.65;;;0.90;;
56239;SDS011;42154;51.992;5.896;2022-09-09T15:43:51;3.50;;;1.35;;
56239;SDS011;42154;51.992;5.896;2022-09-09T15:48:49;3.78;;;1.45;;
56239;SDS011;42154;51.992;5.896;2022-09-09T15:51:16;3.85;;;1.42;;
56239;SDS011;42154;51.992;5.896;2022-09-09T15:53:42;4.45;;;1.63;;
56239;SDS011;42154;51.992;5.896;2022-09-09T15:56:08;6.40;;;1.77;;
56239;SDS011;42154;51.992;5.896;2022-09-09T15:58:35;5.68;;;2.30;;
56239;SDS011;42154;51.992;5.896;2022-09-09T16:01:04;4.07;;;1.35;;
56239;SDS011;42154;51.992;5.896;2022-09-09T16:03:35;4.57;;;1.35;;
56239;SDS011;42154;51.992;5.896;2022-09-09T16:06:01;5.45;;;1.50;;
56239;SDS011;42154;51.992;5.896;2022-09-09T16:08:32;5.10;;;1.20;;
56239;SDS011;42154;51.992;5.896;2022-09-09T16:11:12;2.45;;;0.75;;
56239;SDS011;42154;51.992;5.896;2022-09-09T16:13:45;2.30;;;0.60;;
56239;SDS011;42154;51.992;5.896;2022-09-09T16:16:14;2.63;;;0.73;;
56239;SDS011;42154;51.992;5.896;2022-09-09T16:18:41;1.88;;;0.95;;
56239;SDS011;42154;51.992;5.896;2022-09-09T16:21:31;2.03;;;0.50;;
56239;SDS011;42154;51.992;5.896;2022-09-09T16:23:58;4.57;;;0.98;;
56239;SDS011;42154;51.992;5.896;2022-09-09T16:26:25;2.75;;;0.80;;
56239;SDS011;42154;51.992;5.896;2022-09-09T16:28:52;3.28;;;1.20;;
56239;SDS011;42154;51.992;5.896;2022-09-09T16:31:20;3.97;;;1.00;;
56239;SDS011;42154;51.992;5.896;2022-09-09T16:33:48;3.05;;;1.27;;
56239;SDS011;42154;51.992;5.896;2022-09-09T16:36:24;4.75;;;1.45;;
56239;SDS011;42154;51.992;5.896;2022-09-09T16:38:53;3.92;;;1.90;;
56239;SDS011;42154;51.992;5.896;2022-09-09T16:41:22;4.72;;;2.00;;
56239;SDS011;42154;51.992;5.896;2022-09-09T16:43:57;2.50;;;1.60;;
56239;SDS011;42154;51.992;5.896;2022-09-09T16:46:24;4.93;;;2.22;;
56239;SDS011;42154;51.992;5.896;2022-09-09T16:48:52;3.33;;;1.50;;
56239;SDS011;42154;51.992;5.896;2022-09-09T16:51:21;6.00;;;1.75;;
56239;SDS011;42154;51.992;5.896;2022-09-09T16:53:49;4.35;;;1.55;;
56239;SDS011;42154;51.992;5.896;2022-09-09T16:56:17;4.38;;;1.33;;
56239;SDS011;42154;51.992;5.896;2022-09-09T16:58:48;3.92;;;1.30;;
56239;SDS011;42154;51.992;5.896;2022-09-09T17:01:15;3.50;;;1.40;;
56239;SDS011;42154;51.992;5.896;2022-09-09T17:03:41;3.88;;;1.77;;
56239;SDS011;42154;51.992;5.896;2022-09-09T17:06:11;2.00;;;1.23;;
56239;SDS011;42154;51.992;5.896;2022-09-09T17:08:38;2.63;;;1.20;;
56239;SDS011;42154;51.992;5.896;2022-09-09T17:11:12;3.58;;;1.40;;
56239;SDS011;42154;51.992;5.896;2022-09-09T17:13:42;1.90;;;1.40;;
56239;SDS011;42154;51.992;5.896;2022-09-09T17:16:09;3.20;;;1.30;;
56239;SDS011;42154;51.992;5.896;2022-09-09T17:18:36;3.05;;;1.48;;
56239;SDS011;42154;51.992;5.896;2022-09-09T17:21:03;3.70;;;1.50;;
56239;SDS011;42154;51.992;5.896;2022-09-09T17:23:29;2.28;;;1.20;;
56239;SDS011;42154;51.992;5.896;2022-09-09T17:25:56;3.45;;;1.60;;
56239;SDS011;42154;51.992;5.896;2022-09-09T17:28:23;3.28;;;1.35;;
56239;SDS011;42154;51.992;5.896;2022-09-09T17:30:52;4.20;;;1.35;;
56239;SDS011;42154;51.992;5.896;2022-09-09T17:33:18;2.65;;;1.30;;
56239;SDS011;42154;51.992;5.896;2022-09-09T17:35:45;2.88;;;1.50;;
56239;SDS011;42154;51.992;5.896;2022-09-09T17:38:12;2.67;;;1.45;;
56239;SDS011;42154;51.992;5.896;2022-09-09T17:40:38;1.75;;;1.27;;